sensor_id;sensor_type;location;lat;lon;timestamp;temperature;humidity
21023;DHT22;10669;51.076;3.714;2022-10-23T00:00:29;15.80;47.00
21023;DHT22;10669;51.076;3.714;2022-10-23T00:02:54;15.80;44.40
21023;DHT22;10669;51.076;3.714;2022-10-23T00:05:21;15.90;47.30
21023;DHT22;10669;51.076;3.714;2022-10-23T00:07:51;15.90;44.10
21023;DHT22;10669;51.076;3.714;2022-10-23T00:10:18;15.80;46.30
21023;DHT22;10669;51.076;3.714;2022-10-23T00:12:44;15.90;52.50
21023;DHT22;10669;51.076;3.714;2022-10-23T00:15:11;16.00;49.80
21023;DHT22;10669;51.076;3.714;2022-10-23T00:17:37;15.80;45.10
21023;DHT22;10669;51.076;3.714;2022-10-23T00:20:05;15.50;62.70
21023;DHT22;10669;51.076;3.714;2022-10-23T00:22:31;15.60;69.20
21023;DHT22;10669;51.076;3.714;2022-10-23T00:24:56;15.80;58.60
21023;DHT22;10669;51.076;3.714;2022-10-23T00:27:22;15.60;56.00
21023;DHT22;10669;51.076;3.714;2022-10-23T00:29:48;15.60;66.10
21023;DHT22;10669;51.076;3.714;2022-10-23T00:32:14;15.70;62.50
21023;DHT22;10669;51.076;3.714;2022-10-23T00:34:39;15.60;63.70
21023;DHT22;10669;51.076;3.714;2022-10-23T00:37:05;15.70;60.70
21023;DHT22;10669;51.076;3.714;2022-10-23T00:39:30;15.50;61.80
21023;DHT22;10669;51.076;3.714;2022-10-23T00:41:56;15.40;69.00
21023;DHT22;10669;51.076;3.714;2022-10-23T00:46:48;15.70;72.80
21023;DHT22;10669;51.076;3.714;2022-10-23T00:49:15;15.90;62.20
21023;DHT22;10669;51.076;3.714;2022-10-23T00:51:47;15.80;56.50
21023;DHT22;10669;51.076;3.714;2022-10-23T00:54:16;15.90;49.50
21023;DHT22;10669;51.076;3.714;2022-10-23T00:56:43;16.10;43.30
21023;DHT22;10669;51.076;3.714;2022-10-23T00:59:09;16.20;33.80
21023;DHT22;10669;51.076;3.714;2022-10-23T01:01:35;16.10;30.90
21023;DHT22;10669;51.076;3.714;2022-10-23T01:04:02;16.20;22.70
21023;DHT22;10669;51.076;3.714;2022-10-23T01:06:36;16.20;99.90
21023;DHT22;10669;51.076;3.714;2022-10-23T01:17:07;16.00;99.90
21023;DHT22;10669;51.076;3.714;2022-10-23T01:19:50;16.10;39.30
21023;DHT22;10669;51.076;3.714;2022-10-23T01:22:49;16.00;40.00
21023;DHT22;10669;51.076;3.714;2022-10-23T01:28:17;16.20;38.00
21023;DHT22;10669;51.076;3.714;2022-10-23T01:30:46;16.00;35.10
21023;DHT22;10669;51.076;3.714;2022-10-23T01:33:20;15.90;39.30
21023;DHT22;10669;51.076;3.714;2022-10-23T01:36:09;16.00;44.50
21023;DHT22;10669;51.076;3.714;2022-10-23T01:39:04;15.90;43.00
21023;DHT22;10669;51.076;3.714;2022-10-23T01:41:33;16.00;39.90
21023;DHT22;10669;51.076;3.714;2022-10-23T01:46:36;15.80;49.50
21023;DHT22;10669;51.076;3.714;2022-10-23T01:49:03;15.80;56.00
21023;DHT22;10669;51.076;3.714;2022-10-23T01:51:31;15.90;55.00
21023;DHT22;10669;51.076;3.714;2022-10-23T01:53:59;15.90;49.60
21023;DHT22;10669;51.076;3.714;2022-10-23T01:56:29;15.80;48.60
21023;DHT22;10669;51.076;3.714;2022-10-23T01:58:57;15.90;51.10
21023;DHT22;10669;51.076;3.714;2022-10-23T02:01:27;16.10;50.30
21023;DHT22;10669;51.076;3.714;2022-10-23T02:03:55;16.10;40.30
21023;DHT22;10669;51.076;3.714;2022-10-23T02:06:21;16.10;40.90
21023;DHT22;10669;51.076;3.714;2022-10-23T02:08:47;16.00;42.00
21023;DHT22;10669;51.076;3.714;2022-10-23T02:11:18;15.90;46.00
21023;DHT22;10669;51.076;3.714;2022-10-23T02:14:07;15.90;50.50
21023;DHT22;10669;51.076;3.714;2022-10-23T02:16:52;15.90;55.70
21023;DHT22;10669;51.076;3.714;2022-10-23T02:19:42;15.90;53.60
21023;DHT22;10669;51.076;3.714;2022-10-23T02:22:26;16.00;54.00
21023;DHT22;10669;51.076;3.714;2022-10-23T02:24:58;16.00;49.90
21023;DHT22;10669;51.076;3.714;2022-10-23T02:27:38;15.80;48.90
21023;DHT22;10669;51.076;3.714;2022-10-23T02:30:08;15.70;55.90
21023;DHT22;10669;51.076;3.714;2022-10-23T02:32:36;15.80;61.20
21023;DHT22;10669;51.076;3.714;2022-10-23T02:35:03;15.90;55.00
21023;DHT22;10669;51.076;3.714;2022-10-23T02:37:29;16.10;47.40
21023;DHT22;10669;51.076;3.714;2022-10-23T02:39:55;16.00;41.00
21023;DHT22;10669;51.076;3.714;2022-10-23T02:42:35;15.90;46.70
21023;DHT22;10669;51.076;3.714;2022-10-23T02:48:14;16.00;50.50
21023;DHT22;10669;51.076;3.714;2022-10-23T02:51:20;16.10;38.30
21023;DHT22;10669;51.076;3.714;2022-10-23T02:57:08;16.00;54.50
21023;DHT22;10669;51.076;3.714;2022-10-23T02:59:46;15.90;50.10
21023;DHT22;10669;51.076;3.714;2022-10-23T03:02:20;15.80;49.30
21023;DHT22;10669;51.076;3.714;2022-10-23T03:04:49;15.70;59.10
21023;DHT22;10669;51.076;3.714;2022-10-23T03:07:17;15.90;57.80
21023;DHT22;10669;51.076;3.714;2022-10-23T03:09:43;15.70;55.20
21023;DHT22;10669;51.076;3.714;2022-10-23T03:12:09;15.70;57.70
21023;DHT22;10669;51.076;3.714;2022-10-23T03:14:35;15.80;60.10
21023;DHT22;10669;51.076;3.714;2022-10-23T03:17:01;15.90;56.70
21023;DHT22;10669;51.076;3.714;2022-10-23T03:19:26;16.00;52.80
21023;DHT22;10669;51.076;3.714;2022-10-23T03:21:52;15.90;45.00
21023;DHT22;10669;51.076;3.714;2022-10-23T03:24:17;16.00;47.60
21023;DHT22;10669;51.076;3.714;2022-10-23T03:26:43;15.90;51.70
21023;DHT22;10669;51.076;3.714;2022-10-23T03:29:09;15.80;52.90
21023;DHT22;10669;51.076;3.714;2022-10-23T03:31:34;15.60;57.10
21023;DHT22;10669;51.076;3.714;2022-10-23T03:34:00;15.50;64.60
21023;DHT22;10669;51.076;3.714;2022-10-23T03:36:25;15.60;72.00
21023;DHT22;10669;51.076;3.714;2022-10-23T03:38:51;15.70;67.70
21023;DHT22;10669;51.076;3.714;2022-10-23T03:41:18;15.60;60.60
21023;DHT22;10669;51.076;3.714;2022-10-23T03:43:43;15.50;71.40
21023;DHT22;10669;51.076;3.714;2022-10-23T03:46:09;15.40;74.40
21023;DHT22;10669;51.076;3.714;2022-10-23T03:48:37;15.30;78.80
21023;DHT22;10669;51.076;3.714;2022-10-23T03:51:04;15.50;78.40
21023;DHT22;10669;51.076;3.714;2022-10-23T03:53:30;15.60;70.60
21023;DHT22;10669;51.076;3.714;2022-10-23T03:55:56;15.70;68.30
21023;DHT22;10669;51.076;3.714;2022-10-23T03:58:21;15.60;65.60
21023;DHT22;10669;51.076;3.714;2022-10-23T04:00:47;15.80;63.30
21023;DHT22;10669;51.076;3.714;2022-10-23T04:03:13;15.80;58.90
21023;DHT22;10669;51.076;3.714;2022-10-23T04:05:40;15.70;56.30
21023;DHT22;10669;51.076;3.714;2022-10-23T04:08:06;15.60;58.60
21023;DHT22;10669;51.076;3.714;2022-10-23T04:10:31;15.70;54.20
21023;DHT22;10669;51.076;3.714;2022-10-23T04:12:57;15.70;54.50
21023;DHT22;10669;51.076;3.714;2022-10-23T04:15:23;15.60;58.20
21023;DHT22;10669;51.076;3.714;2022-10-23T04:17:50;15.50;59.90
21023;DHT22;10669;51.076;3.714;2022-10-23T04:20:16;15.50;66.80
21023;DHT22;10669;51.076;3.714;2022-10-23T04:22:41;15.60;62.50
21023;DHT22;10669;51.076;3.714;2022-10-23T04:25:07;15.50;62.00
21023;DHT22;10669;51.076;3.714;2022-10-23T04:27:33;15.40;71.10
21023;DHT22;10669;51.076;3.714;2022-10-23T04:29:59;15.40;70.30
21023;DHT22;10669;51.076;3.714;2022-10-23T04:32:25;15.50;66.70
21023;DHT22;10669;51.076;3.714;2022-10-23T04:34:51;15.60;64.00
21023;DHT22;10669;51.076;3.714;2022-10-23T04:37:16;15.70;58.60
21023;DHT22;10669;51.076;3.714;2022-10-23T04:39:42;15.80;47.40
21023;DHT22;10669;51.076;3.714;2022-10-23T04:42:08;15.70;45.50
21023;DHT22;10669;51.076;3.714;2022-10-23T04:44:33;15.70;47.90
21023;DHT22;10669;51.076;3.714;2022-10-23T04:46:59;15.60;54.50
21023;DHT22;10669;51.076;3.714;2022-10-23T04:49:24;15.50;58.10
21023;DHT22;10669;51.076;3.714;2022-10-23T04:51:50;15.70;50.90
21023;DHT22;10669;51.076;3.714;2022-10-23T04:54:16;15.50;48.00
21023;DHT22;10669;51.076;3.714;2022-10-23T04:56:41;15.30;53.40
21023;DHT22;10669;51.076;3.714;2022-10-23T04:59:08;15.30;61.30
21023;DHT22;10669;51.076;3.714;2022-10-23T05:01:34;15.20;66.10
21023;DHT22;10669;51.076;3.714;2022-10-23T05:04:00;15.40;64.90
21023;DHT22;10669;51.076;3.714;2022-10-23T05:06:25;15.40;57.50
21023;DHT22;10669;51.076;3.714;2022-10-23T05:08:52;15.40;63.30
21023;DHT22;10669;51.076;3.714;2022-10-23T05:11:18;15.30;68.60
21023;DHT22;10669;51.076;3.714;2022-10-23T05:13:44;15.30;72.90
21023;DHT22;10669;51.076;3.714;2022-10-23T05:16:12;15.40;68.90
21023;DHT22;10669;51.076;3.714;2022-10-23T05:18:47;15.50;68.90
21023;DHT22;10669;51.076;3.714;2022-10-23T05:21:21;15.60;59.00
21023;DHT22;10669;51.076;3.714;2022-10-23T05:23:50;15.40;54.90
21023;DHT22;10669;51.076;3.714;2022-10-23T05:26:16;15.40;57.60
21023;DHT22;10669;51.076;3.714;2022-10-23T05:28:42;15.30;65.80
21023;DHT22;10669;51.076;3.714;2022-10-23T05:31:07;15.40;71.00
21023;DHT22;10669;51.076;3.714;2022-10-23T05:33:34;15.40;71.30
21023;DHT22;10669;51.076;3.714;2022-10-23T05:36:00;15.20;67.90
21023;DHT22;10669;51.076;3.714;2022-10-23T05:38:28;15.00;76.20
21023;DHT22;10669;51.076;3.714;2022-10-23T05:40:55;15.20;83.20
21023;DHT22;10669;51.076;3.714;2022-10-23T05:43:21;15.20;78.50
21023;DHT22;10669;51.076;3.714;2022-10-23T05:45:49;15.20;78.60
21023;DHT22;10669;51.076;3.714;2022-10-23T05:48:15;15.30;77.90
21023;DHT22;10669;51.076;3.714;2022-10-23T05:50:41;15.40;71.30
21023;DHT22;10669;51.076;3.714;2022-10-23T05:53:11;15.40;67.70
21023;DHT22;10669;51.076;3.714;2022-10-23T05:55:36;15.60;71.50
21023;DHT22;10669;51.076;3.714;2022-10-23T05:58:05;15.60;69.10
21023;DHT22;10669;51.076;3.714;2022-10-23T06:00:32;15.60;64.00
21023;DHT22;10669;51.076;3.714;2022-10-23T06:03:01;15.50;71.80
21023;DHT22;10669;51.076;3.714;2022-10-23T06:05:27;15.40;70.30
21023;DHT22;10669;51.076;3.714;2022-10-23T06:07:58;15.40;79.50
21023;DHT22;10669;51.076;3.714;2022-10-23T06:10:25;15.30;83.20
21023;DHT22;10669;51.076;3.714;2022-10-23T06:12:51;15.50;84.00
21023;DHT22;10669;51.076;3.714;2022-10-23T06:15:20;15.60;81.20
21023;DHT22;10669;51.076;3.714;2022-10-23T06:17:45;15.50;66.20
21023;DHT22;10669;51.076;3.714;2022-10-23T06:20:12;15.60;69.70
21023;DHT22;10669;51.076;3.714;2022-10-23T06:22:38;15.40;73.90
21023;DHT22;10669;51.076;3.714;2022-10-23T06:25:06;15.60;82.20
21023;DHT22;10669;51.076;3.714;2022-10-23T06:27:32;15.50;80.60
21023;DHT22;10669;51.076;3.714;2022-10-23T06:29:58;15.60;71.30
21023;DHT22;10669;51.076;3.714;2022-10-23T06:32:23;15.60;74.90
21023;DHT22;10669;51.076;3.714;2022-10-23T06:34:49;15.50;72.90
21023;DHT22;10669;51.076;3.714;2022-10-23T06:37:15;15.40;78.80
21023;DHT22;10669;51.076;3.714;2022-10-23T06:39:40;15.40;83.20
21023;DHT22;10669;51.076;3.714;2022-10-23T06:42:06;15.40;89.60
21023;DHT22;10669;51.076;3.714;2022-10-23T06:44:32;15.50;85.30
21023;DHT22;10669;51.076;3.714;2022-10-23T06:46:59;15.50;87.40
21023;DHT22;10669;51.076;3.714;2022-10-23T06:49:26;15.40;90.40
21023;DHT22;10669;51.076;3.714;2022-10-23T06:51:52;15.40;87.90
21023;DHT22;10669;51.076;3.714;2022-10-23T06:54:17;15.40;89.70
21023;DHT22;10669;51.076;3.714;2022-10-23T06:56:43;15.30;92.00
21023;DHT22;10669;51.076;3.714;2022-10-23T06:59:08;15.40;96.20
21023;DHT22;10669;51.076;3.714;2022-10-23T07:01:35;15.50;93.20
21023;DHT22;10669;51.076;3.714;2022-10-23T07:04:02;15.60;89.50
21023;DHT22;10669;51.076;3.714;2022-10-23T07:06:28;15.50;86.70
21023;DHT22;10669;51.076;3.714;2022-10-23T07:08:53;15.50;91.90
21023;DHT22;10669;51.076;3.714;2022-10-23T07:11:19;15.50;93.60
21023;DHT22;10669;51.076;3.714;2022-10-23T07:13:44;15.60;91.50
21023;DHT22;10669;51.076;3.714;2022-10-23T07:16:19;15.60;86.00
21023;DHT22;10669;51.076;3.714;2022-10-23T07:18:47;15.50;92.00
21023;DHT22;10669;51.076;3.714;2022-10-23T07:21:13;15.60;93.30
21023;DHT22;10669;51.076;3.714;2022-10-23T07:23:39;15.60;91.80
21023;DHT22;10669;51.076;3.714;2022-10-23T07:26:10;15.80;91.70
21023;DHT22;10669;51.076;3.714;2022-10-23T07:28:36;16.00;87.20
21023;DHT22;10669;51.076;3.714;2022-10-23T07:31:02;15.80;86.00
21023;DHT22;10669;51.076;3.714;2022-10-23T07:33:27;15.90;87.20
21023;DHT22;10669;51.076;3.714;2022-10-23T07:35:53;16.00;80.20
21023;DHT22;10669;51.076;3.714;2022-10-23T07:38:19;16.00;84.20
21023;DHT22;10669;51.076;3.714;2022-10-23T07:40:44;16.10;77.20
21023;DHT22;10669;51.076;3.714;2022-10-23T07:43:11;16.10;80.70
21023;DHT22;10669;51.076;3.714;2022-10-23T07:45:37;16.20;79.70
21023;DHT22;10669;51.076;3.714;2022-10-23T07:48:02;16.30;78.30
21023;DHT22;10669;51.076;3.714;2022-10-23T07:50:29;16.30;76.10
21023;DHT22;10669;51.076;3.714;2022-10-23T07:52:55;16.30;77.60
21023;DHT22;10669;51.076;3.714;2022-10-23T07:55:23;16.20;74.20
21023;DHT22;10669;51.076;3.714;2022-10-23T07:57:49;16.30;77.20
21023;DHT22;10669;51.076;3.714;2022-10-23T08:00:15;16.10;75.60
21023;DHT22;10669;51.076;3.714;2022-10-23T08:02:41;16.10;90.90
21023;DHT22;10669;51.076;3.714;2022-10-23T08:05:07;16.30;86.70
21023;DHT22;10669;51.076;3.714;2022-10-23T08:07:33;16.50;80.00
21023;DHT22;10669;51.076;3.714;2022-10-23T08:09:59;16.60;71.00
21023;DHT22;10669;51.076;3.714;2022-10-23T08:12:25;16.60;61.80
21023;DHT22;10669;51.076;3.714;2022-10-23T08:14:50;16.40;71.30
21023;DHT22;10669;51.076;3.714;2022-10-23T08:17:16;16.20;89.50
21023;DHT22;10669;51.076;3.714;2022-10-23T08:19:41;16.30;90.50
21023;DHT22;10669;51.076;3.714;2022-10-23T08:22:11;16.40;92.30
21023;DHT22;10669;51.076;3.714;2022-10-23T08:24:37;16.50;91.40
21023;DHT22;10669;51.076;3.714;2022-10-23T08:27:02;16.30;89.60
21023;DHT22;10669;51.076;3.714;2022-10-23T08:29:28;16.50;94.00
21023;DHT22;10669;51.076;3.714;2022-10-23T08:31:54;16.70;91.10
21023;DHT22;10669;51.076;3.714;2022-10-23T08:34:23;16.70;75.50
21023;DHT22;10669;51.076;3.714;2022-10-23T08:36:49;17.10;76.80
21023;DHT22;10669;51.076;3.714;2022-10-23T08:39:15;17.00;73.10
21023;DHT22;10669;51.076;3.714;2022-10-23T08:41:45;17.10;65.70
21023;DHT22;10669;51.076;3.714;2022-10-23T08:47:16;16.80;67.50
21023;DHT22;10669;51.076;3.714;2022-10-23T08:49:47;16.90;74.30
21023;DHT22;10669;51.076;3.714;2022-10-23T08:52:35;16.80;77.00
21023;DHT22;10669;51.076;3.714;2022-10-23T08:55:26;16.40;91.20
21023;DHT22;10669;51.076;3.714;2022-10-23T08:58:15;16.70;92.10
21023;DHT22;10669;51.076;3.714;2022-10-23T09:00:44;17.00;74.90
21023;DHT22;10669;51.076;3.714;2022-10-23T09:03:11;17.10;66.40
21023;DHT22;10669;51.076;3.714;2022-10-23T09:08:50;17.10;66.00
21023;DHT22;10669;51.076;3.714;2022-10-23T09:12:02;17.20;72.90
21023;DHT22;10669;51.076;3.714;2022-10-23T09:17:24;16.80;79.50
21023;DHT22;10669;51.076;3.714;2022-10-23T09:22:29;17.00;70.60
21023;DHT22;10669;51.076;3.714;2022-10-23T09:24:55;17.10;66.60
21023;DHT22;10669;51.076;3.714;2022-10-23T09:27:21;17.30;63.30
21023;DHT22;10669;51.076;3.714;2022-10-23T09:29:49;17.20;64.70
21023;DHT22;10669;51.076;3.714;2022-10-23T09:32:16;17.20;67.90
21023;DHT22;10669;51.076;3.714;2022-10-23T09:34:52;17.20;62.50
21023;DHT22;10669;51.076;3.714;2022-10-23T09:37:26;17.30;67.90
21023;DHT22;10669;51.076;3.714;2022-10-23T09:40:15;17.20;66.20
21023;DHT22;10669;51.076;3.714;2022-10-23T09:42:53;17.30;67.70
21023;DHT22;10669;51.076;3.714;2022-10-23T09:45:25;17.20;66.30
21023;DHT22;10669;51.076;3.714;2022-10-23T09:48:20;17.30;68.30
21023;DHT22;10669;51.076;3.714;2022-10-23T09:51:02;17.30;67.90
21023;DHT22;10669;51.076;3.714;2022-10-23T09:53:38;17.30;69.70
21023;DHT22;10669;51.076;3.714;2022-10-23T09:59:02;17.50;58.70
21023;DHT22;10669;51.076;3.714;2022-10-23T10:01:31;17.60;52.40
21023;DHT22;10669;51.076;3.714;2022-10-23T10:03:57;17.40;57.10
21023;DHT22;10669;51.076;3.714;2022-10-23T10:06:27;17.50;56.30
21023;DHT22;10669;51.076;3.714;2022-10-23T10:08:55;17.60;56.70
21023;DHT22;10669;51.076;3.714;2022-10-23T10:11:41;17.70;54.00
21023;DHT22;10669;51.076;3.714;2022-10-23T10:14:38;17.60;52.60
21023;DHT22;10669;51.076;3.714;2022-10-23T10:23:02;17.90;34.50
21023;DHT22;10669;51.076;3.714;2022-10-23T10:28:25;18.10;27.80
21023;DHT22;10669;51.076;3.714;2022-10-23T10:31:04;18.10;25.60
21023;DHT22;10669;51.076;3.714;2022-10-23T10:36:50;18.30;26.50
21023;DHT22;10669;51.076;3.714;2022-10-23T10:39:34;18.50;11.60
21023;DHT22;10669;51.076;3.714;2022-10-23T10:51:04;18.70;99.90
21023;DHT22;10669;51.076;3.714;2022-10-23T10:56:24;18.90;99.90
21023;DHT22;10669;51.076;3.714;2022-10-23T10:58:53;18.90;99.90
21023;DHT22;10669;51.076;3.714;2022-10-23T11:01:32;18.80;99.90
21023;DHT22;10669;51.076;3.714;2022-10-23T11:04:04;18.80;99.90
21023;DHT22;10669;51.076;3.714;2022-10-23T11:06:35;18.90;99.90
21023;DHT22;10669;51.076;3.714;2022-10-23T11:09:26;19.00;99.90
21023;DHT22;10669;51.076;3.714;2022-10-23T11:11:54;18.80;99.90
21023;DHT22;10669;51.076;3.714;2022-10-23T11:14:23;19.00;99.90
21023;DHT22;10669;51.076;3.714;2022-10-23T11:16:51;19.00;99.90
21023;DHT22;10669;51.076;3.714;2022-10-23T11:19:31;19.00;99.90
21023;DHT22;10669;51.076;3.714;2022-10-23T11:25:14;18.90;99.90
21023;DHT22;10669;51.076;3.714;2022-10-23T11:36:58;19.30;99.90
21023;DHT22;10669;51.076;3.714;2022-10-23T11:41:50;19.50;99.90
21023;DHT22;10669;51.076;3.714;2022-10-23T11:44:40;19.50;99.90
21023;DHT22;10669;51.076;3.714;2022-10-23T11:47:27;19.40;99.90
21023;DHT22;10669;51.076;3.714;2022-10-23T11:55:15;19.50;99.90
21023;DHT22;10669;51.076;3.714;2022-10-23T11:57:43;19.40;99.90
21023;DHT22;10669;51.076;3.714;2022-10-23T12:00:22;19.50;99.90
21023;DHT22;10669;51.076;3.714;2022-10-23T12:02:53;19.50;99.90
21023;DHT22;10669;51.076;3.714;2022-10-23T12:05:33;19.60;99.90
21023;DHT22;10669;51.076;3.714;2022-10-23T12:08:01;19.60;99.90
21023;DHT22;10669;51.076;3.714;2022-10-23T12:10:33;19.60;99.90
21023;DHT22;10669;51.076;3.714;2022-10-23T12:13:02;19.80;99.90
21023;DHT22;10669;51.076;3.714;2022-10-23T12:15:29;19.80;99.90
21023;DHT22;10669;51.076;3.714;2022-10-23T12:18:14;19.80;99.90
21023;DHT22;10669;51.076;3.714;2022-10-23T12:20:56;19.90;99.90
21023;DHT22;10669;51.076;3.714;2022-10-23T12:23:47;19.80;99.90
21023;DHT22;10669;51.076;3.714;2022-10-23T12:29:15;20.00;99.90
21023;DHT22;10669;51.076;3.714;2022-10-23T12:40:08;20.30;99.90
21023;DHT22;10669;51.076;3.714;2022-10-23T12:42:35;20.30;99.90
21023;DHT22;10669;51.076;3.714;2022-10-23T12:45:20;20.40;99.90
21023;DHT22;10669;51.076;3.714;2022-10-23T12:47:49;20.40;99.90
21023;DHT22;10669;51.076;3.714;2022-10-23T12:50:24;20.30;99.90
21023;DHT22;10669;51.076;3.714;2022-10-23T12:53:03;20.30;99.90
21023;DHT22;10669;51.076;3.714;2022-10-23T12:56:00;20.30;99.90
21023;DHT22;10669;51.076;3.714;2022-10-23T12:58:30;20.30;99.90
21023;DHT22;10669;51.076;3.714;2022-10-23T13:00:58;20.30;99.90
21023;DHT22;10669;51.076;3.714;2022-10-23T13:03:27;20.30;99.90
21023;DHT22;10669;51.076;3.714;2022-10-23T13:05:55;20.40;99.90
21023;DHT22;10669;51.076;3.714;2022-10-23T13:08:31;20.40;99.90
21023;DHT22;10669;51.076;3.714;2022-10-23T13:10:57;20.50;99.90
21023;DHT22;10669;51.076;3.714;2022-10-23T13:13:25;20.40;99.90
21023;DHT22;10669;51.076;3.714;2022-10-23T13:15:52;20.50;99.90
21023;DHT22;10669;51.076;3.714;2022-10-23T13:18:18;20.60;99.90
21023;DHT22;10669;51.076;3.714;2022-10-23T13:25:55;21.00;99.90
21023;DHT22;10669;51.076;3.714;2022-10-23T13:28:31;20.90;99.90
21023;DHT22;10669;51.076;3.714;2022-10-23T13:33:37;21.00;99.90
21023;DHT22;10669;51.076;3.714;2022-10-23T13:41:42;20.90;99.90
21023;DHT22;10669;51.076;3.714;2022-10-23T13:44:15;21.00;99.90
21023;DHT22;10669;51.076;3.714;2022-10-23T13:46:42;21.10;99.90
21023;DHT22;10669;51.076;3.714;2022-10-23T13:49:08;21.10;99.90
21023;DHT22;10669;51.076;3.714;2022-10-23T13:51:46;21.00;99.90
21023;DHT22;10669;51.076;3.714;2022-10-23T13:54:18;21.00;99.90
21023;DHT22;10669;51.076;3.714;2022-10-23T13:56:45;21.00;99.90
21023;DHT22;10669;51.076;3.714;2022-10-23T13:59:10;20.90;99.90
21023;DHT22;10669;51.076;3.714;2022-10-23T14:01:37;20.90;99.90
21023;DHT22;10669;51.076;3.714;2022-10-23T14:04:04;20.80;99.90
21023;DHT22;10669;51.076;3.714;2022-10-23T14:06:30;21.00;99.90
21023;DHT22;10669;51.076;3.714;2022-10-23T14:08:57;21.00;99.90
21023;DHT22;10669;51.076;3.714;2022-10-23T14:11:23;20.90;99.90
21023;DHT22;10669;51.076;3.714;2022-10-23T14:13:49;20.70;99.90
21023;DHT22;10669;51.076;3.714;2022-10-23T14:16:17;20.80;99.90
21023;DHT22;10669;51.076;3.714;2022-10-23T14:18:44;20.60;99.90
21023;DHT22;10669;51.076;3.714;2022-10-23T14:21:12;20.60;99.90
21023;DHT22;10669;51.076;3.714;2022-10-23T14:23:38;20.60;99.90
21023;DHT22;10669;51.076;3.714;2022-10-23T14:26:10;20.50;99.90
21023;DHT22;10669;51.076;3.714;2022-10-23T14:28:37;20.50;99.90
21023;DHT22;10669;51.076;3.714;2022-10-23T14:31:11;20.60;99.90
21023;DHT22;10669;51.076;3.714;2022-10-23T14:33:37;20.40;99.90
21023;DHT22;10669;51.076;3.714;2022-10-23T14:36:03;20.40;99.90
21023;DHT22;10669;51.076;3.714;2022-10-23T14:38:29;20.50;99.90
21023;DHT22;10669;51.076;3.714;2022-10-23T14:40:55;20.50;99.90
21023;DHT22;10669;51.076;3.714;2022-10-23T14:43:24;20.50;99.90
21023;DHT22;10669;51.076;3.714;2022-10-23T14:45:51;20.50;99.90
21023;DHT22;10669;51.076;3.714;2022-10-23T14:48:17;20.50;99.90
21023;DHT22;10669;51.076;3.714;2022-10-23T14:50:47;20.50;99.90
21023;DHT22;10669;51.076;3.714;2022-10-23T14:53:16;20.60;99.90
21023;DHT22;10669;51.076;3.714;2022-10-23T14:55:42;20.70;99.90
21023;DHT22;10669;51.076;3.714;2022-10-23T14:58:08;20.80;99.90
21023;DHT22;10669;51.076;3.714;2022-10-23T15:00:33;20.70;99.90
21023;DHT22;10669;51.076;3.714;2022-10-23T15:02:59;20.60;99.90
21023;DHT22;10669;51.076;3.714;2022-10-23T15:05:25;20.70;99.90
21023;DHT22;10669;51.076;3.714;2022-10-23T15:07:51;20.60;99.90
21023;DHT22;10669;51.076;3.714;2022-10-23T15:10:20;20.60;99.90
21023;DHT22;10669;51.076;3.714;2022-10-23T15:12:47;20.60;99.90
21023;DHT22;10669;51.076;3.714;2022-10-23T15:15:13;20.60;99.90
21023;DHT22;10669;51.076;3.714;2022-10-23T15:17:39;20.60;99.90
21023;DHT22;10669;51.076;3.714;2022-10-23T15:20:06;20.50;99.90
21023;DHT22;10669;51.076;3.714;2022-10-23T15:22:33;20.60;99.90
21023;DHT22;10669;51.076;3.714;2022-10-23T15:24:59;20.60;99.90
21023;DHT22;10669;51.076;3.714;2022-10-23T15:27:25;20.70;99.90
21023;DHT22;10669;51.076;3.714;2022-10-23T15:29:51;20.60;99.90
21023;DHT22;10669;51.076;3.714;2022-10-23T15:32:17;20.70;99.90
21023;DHT22;10669;51.076;3.714;2022-10-23T15:34:42;20.60;99.90
21023;DHT22;10669;51.076;3.714;2022-10-23T15:37:09;20.70;99.90
21023;DHT22;10669;51.076;3.714;2022-10-23T15:39:36;20.70;99.90
21023;DHT22;10669;51.076;3.714;2022-10-23T15:42:04;20.60;99.90
21023;DHT22;10669;51.076;3.714;2022-10-23T15:44:31;20.60;99.90
21023;DHT22;10669;51.076;3.714;2022-10-23T15:46:57;20.70;99.90
21023;DHT22;10669;51.076;3.714;2022-10-23T15:49:26;20.60;99.90
21023;DHT22;10669;51.076;3.714;2022-10-23T15:51:54;20.60;99.90
21023;DHT22;10669;51.076;3.714;2022-10-23T15:54:21;20.50;99.90
21023;DHT22;10669;51.076;3.714;2022-10-23T15:56:49;20.40;99.90
21023;DHT22;10669;51.076;3.714;2022-10-23T15:59:16;20.30;99.90
21023;DHT22;10669;51.076;3.714;2022-10-23T16:01:43;20.50;99.90
21023;DHT22;10669;51.076;3.714;2022-10-23T16:04:09;20.30;99.90
21023;DHT22;10669;51.076;3.714;2022-10-23T16:06:35;20.30;99.90
21023;DHT22;10669;51.076;3.714;2022-10-23T16:09:02;20.30;99.90
21023;DHT22;10669;51.076;3.714;2022-10-23T16:11:32;20.40;99.90
21023;DHT22;10669;51.076;3.714;2022-10-23T16:13:58;20.40;99.90
21023;DHT22;10669;51.076;3.714;2022-10-23T16:16:26;20.40;99.90
21023;DHT22;10669;51.076;3.714;2022-10-23T16:18:51;20.20;99.90
21023;DHT22;10669;51.076;3.714;2022-10-23T16:21:23;19.90;99.90
21023;DHT22;10669;51.076;3.714;2022-10-23T16:23:49;20.00;99.90
21023;DHT22;10669;51.076;3.714;2022-10-23T16:26:16;20.00;99.90
21023;DHT22;10669;51.076;3.714;2022-10-23T16:28:42;19.90;99.90
21023;DHT22;10669;51.076;3.714;2022-10-23T16:31:12;19.70;99.90
21023;DHT22;10669;51.076;3.714;2022-10-23T16:33:38;19.80;99.90
21023;DHT22;10669;51.076;3.714;2022-10-23T16:36:06;19.80;99.90
21023;DHT22;10669;51.076;3.714;2022-10-23T16:38:32;19.80;99.90
21023;DHT22;10669;51.076;3.714;2022-10-23T16:41:00;19.80;99.90
21023;DHT22;10669;51.076;3.714;2022-10-23T16:43:26;19.90;99.90
21023;DHT22;10669;51.076;3.714;2022-10-23T16:46:07;19.80;99.90
21023;DHT22;10669;51.076;3.714;2022-10-23T16:48:34;19.80;99.90
21023;DHT22;10669;51.076;3.714;2022-10-23T16:51:06;19.70;99.90
21023;DHT22;10669;51.076;3.714;2022-10-23T16:53:33;19.60;99.90
21023;DHT22;10669;51.076;3.714;2022-10-23T16:55:59;19.60;99.90
21023;DHT22;10669;51.076;3.714;2022-10-23T16:58:27;19.60;99.90
21023;DHT22;10669;51.076;3.714;2022-10-23T17:01:00;19.70;99.90
21023;DHT22;10669;51.076;3.714;2022-10-23T17:03:28;19.60;99.90
21023;DHT22;10669;51.076;3.714;2022-10-23T17:05:58;19.60;99.90
21023;DHT22;10669;51.076;3.714;2022-10-23T17:08:24;19.50;99.90
21023;DHT22;10669;51.076;3.714;2022-10-23T17:11:13;19.50;99.90
21023;DHT22;10669;51.076;3.714;2022-10-23T17:13:44;19.50;99.90
21023;DHT22;10669;51.076;3.714;2022-10-23T17:16:17;19.60;99.90
21023;DHT22;10669;51.076;3.714;2022-10-23T17:18:44;19.70;99.90
21023;DHT22;10669;51.076;3.714;2022-10-23T17:21:13;19.70;99.90
21023;DHT22;10669;51.076;3.714;2022-10-23T17:23:40;19.70;99.90
21023;DHT22;10669;51.076;3.714;2022-10-23T17:26:08;19.60;99.90
21023;DHT22;10669;51.076;3.714;2022-10-23T17:28:34;19.60;99.90